sensor_id;sensor_type;location;lat;lon;timestamp;temperature;humidity
22974;DHT22;11653;50.848;4.584;2023-05-02T00:01:58;11.40;99.90
22974;DHT22;11653;50.848;4.584;2023-05-02T00:04:24;11.40;99.90
22974;DHT22;11653;50.848;4.584;2023-05-02T00:06:53;11.40;99.90
22974;DHT22;11653;50.848;4.584;2023-05-02T00:09:19;11.40;99.90
22974;DHT22;11653;50.848;4.584;2023-05-02T00:11:45;11.60;99.90
22974;DHT22;11653;50.848;4.584;2023-05-02T00:14:10;11.60;99.90
22974;DHT22;11653;50.848;4.584;2023-05-02T00:16:36;11.70;99.90
22974;DHT22;11653;50.848;4.584;2023-05-02T00:19:02;11.80;99.90
22974;DHT22;11653;50.848;4.584;2023-05-02T00:21:27;11.90;99.90
22974;DHT22;11653;50.848;4.584;2023-05-02T00:23:54;12.00;99.90
22974;DHT22;11653;50.848;4.584;2023-05-02T00:26:22;12.10;99.90
22974;DHT22;11653;50.848;4.584;2023-05-02T00:28:47;12.20;99.90
22974;DHT22;11653;50.848;4.584;2023-05-02T00:31:13;12.20;99.90
22974;DHT22;11653;50.848;4.584;2023-05-02T00:33:39;12.20;99.90
22974;DHT22;11653;50.848;4.584;2023-05-02T00:36:16;12.40;99.90
22974;DHT22;11653;50.848;4.584;2023-05-02T00:38:42;12.50;99.90
22974;DHT22;11653;50.848;4.584;2023-05-02T00:41:08;12.60;99.90
22974;DHT22;11653;50.848;4.584;2023-05-02T00:43:34;12.60;99.90
22974;DHT22;11653;50.848;4.584;2023-05-02T00:46:01;12.60;99.90
22974;DHT22;11653;50.848;4.584;2023-05-02T00:48:27;12.70;99.90
22974;DHT22;11653;50.848;4.584;2023-05-02T00:50:53;12.70;99.90
22974;DHT22;11653;50.848;4.584;2023-05-02T00:53:18;12.80;99.90
22974;DHT22;11653;50.848;4.584;2023-05-02T00:55:44;12.90;99.90
22974;DHT22;11653;50.848;4.584;2023-05-02T00:58:15;12.90;99.90
22974;DHT22;11653;50.848;4.584;2023-05-02T01:14:34;12.80;99.90
22974;DHT22;11653;50.848;4.584;2023-05-02T01:17:07;12.80;99.90
22974;DHT22;11653;50.848;4.584;2023-05-02T01:19:40;12.80;99.90
22974;DHT22;11653;50.848;4.584;2023-05-02T01:22:08;12.70;99.90
22974;DHT22;11653;50.848;4.584;2023-05-02T01:27:23;12.80;99.90
22974;DHT22;11653;50.848;4.584;2023-05-02T01:29:52;12.80;99.90
22974;DHT22;11653;50.848;4.584;2023-05-02T01:32:20;12.90;99.90
22974;DHT22;11653;50.848;4.584;2023-05-02T01:34:48;12.90;99.90
22974;DHT22;11653;50.848;4.584;2023-05-02T01:37:16;12.90;99.90
22974;DHT22;11653;50.848;4.584;2023-05-02T01:39:43;12.80;99.90
22974;DHT22;11653;50.848;4.584;2023-05-02T01:42:10;12.90;99.90
22974;DHT22;11653;50.848;4.584;2023-05-02T01:44:37;12.80;99.90
22974;DHT22;11653;50.848;4.584;2023-05-02T01:47:06;12.80;99.90
22974;DHT22;11653;50.848;4.584;2023-05-02T01:49:34;12.90;99.90
22974;DHT22;11653;50.848;4.584;2023-05-02T01:52:03;12.90;99.90
22974;DHT22;11653;50.848;4.584;2023-05-02T01:54:32;12.70;99.90
22974;DHT22;11653;50.848;4.584;2023-05-02T01:57:00;12.70;99.90
22974;DHT22;11653;50.848;4.584;2023-05-02T01:59:29;12.70;99.90
22974;DHT22;11653;50.848;4.584;2023-05-02T02:01:58;12.70;99.90
22974;DHT22;11653;50.848;4.584;2023-05-02T02:04:26;12.70;99.90
22974;DHT22;11653;50.848;4.584;2023-05-02T02:06:57;12.80;99.90
22974;DHT22;11653;50.848;4.584;2023-05-02T02:09:25;12.80;99.90
22974;DHT22;11653;50.848;4.584;2023-05-02T02:12:11;12.80;99.90
22974;DHT22;11653;50.848;4.584;2023-05-02T02:14:42;12.80;99.90
22974;DHT22;11653;50.848;4.584;2023-05-02T02:17:24;12.80;99.90
22974;DHT22;11653;50.848;4.584;2023-05-02T02:19:53;12.70;99.90
22974;DHT22;11653;50.848;4.584;2023-05-02T02:22:20;12.70;99.90
22974;DHT22;11653;50.848;4.584;2023-05-02T02:24:47;12.60;99.90
22974;DHT22;11653;50.848;4.584;2023-05-02T02:27:13;12.60;99.90
22974;DHT22;11653;50.848;4.584;2023-05-02T02:29:39;12.40;99.90
22974;DHT22;11653;50.848;4.584;2023-05-02T02:32:05;12.30;99.90
22974;DHT22;11653;50.848;4.584;2023-05-02T02:34:30;12.20;99.90
22974;DHT22;11653;50.848;4.584;2023-05-02T02:37:08;12.30;99.90
22974;DHT22;11653;50.848;4.584;2023-05-02T02:42:14;12.40;99.90
22974;DHT22;11653;50.848;4.584;2023-05-02T02:45:03;12.50;99.90
22974;DHT22;11653;50.848;4.584;2023-05-02T02:47:45;12.50;99.90
22974;DHT22;11653;50.848;4.584;2023-05-02T02:50:25;12.50;99.90
22974;DHT22;11653;50.848;4.584;2023-05-02T02:52:59;12.50;99.90
22974;DHT22;11653;50.848;4.584;2023-05-02T03:00:53;12.60;99.90
22974;DHT22;11653;50.848;4.584;2023-05-02T03:03:21;12.60;99.90
22974;DHT22;11653;50.848;4.584;2023-05-02T03:05:49;12.60;99.90
22974;DHT22;11653;50.848;4.584;2023-05-02T03:08:16;12.60;99.90
22974;DHT22;11653;50.848;4.584;2023-05-02T03:10:42;12.60;99.90
22974;DHT22;11653;50.848;4.584;2023-05-02T03:13:08;12.80;99.90
22974;DHT22;11653;50.848;4.584;2023-05-02T03:18:41;12.80;99.90
22974;DHT22;11653;50.848;4.584;2023-05-02T03:21:07;12.80;99.90
22974;DHT22;11653;50.848;4.584;2023-05-02T03:23:33;12.80;99.90
22974;DHT22;11653;50.848;4.584;2023-05-02T03:25:58;12.60;99.90
22974;DHT22;11653;50.848;4.584;2023-05-02T03:28:24;12.60;99.90
22974;DHT22;11653;50.848;4.584;2023-05-02T03:30:50;12.50;99.90
22974;DHT22;11653;50.848;4.584;2023-05-02T03:33:15;12.60;99.90
22974;DHT22;11653;50.848;4.584;2023-05-02T03:35:41;12.50;99.90
22974;DHT22;11653;50.848;4.584;2023-05-02T03:38:07;12.60;99.90
22974;DHT22;11653;50.848;4.584;2023-05-02T03:40:32;12.60;99.90
22974;DHT22;11653;50.848;4.584;2023-05-02T03:42:58;12.70;99.90
22974;DHT22;11653;50.848;4.584;2023-05-02T03:45:23;12.70;99.90
22974;DHT22;11653;50.848;4.584;2023-05-02T03:47:49;12.70;99.90
22974;DHT22;11653;50.848;4.584;2023-05-02T03:50:15;12.80;99.90
22974;DHT22;11653;50.848;4.584;2023-05-02T03:52:40;12.80;99.90
22974;DHT22;11653;50.848;4.584;2023-05-02T03:55:06;12.80;99.90
22974;DHT22;11653;50.848;4.584;2023-05-02T03:57:32;12.80;99.90
22974;DHT22;11653;50.848;4.584;2023-05-02T03:59:58;12.90;99.90
22974;DHT22;11653;50.848;4.584;2023-05-02T04:02:24;12.80;99.90
22974;DHT22;11653;50.848;4.584;2023-05-02T04:04:50;12.90;99.90
22974;DHT22;11653;50.848;4.584;2023-05-02T04:07:16;12.80;99.90
22974;DHT22;11653;50.848;4.584;2023-05-02T04:09:44;12.80;99.90
22974;DHT22;11653;50.848;4.584;2023-05-02T04:12:10;12.80;99.90
22974;DHT22;11653;50.848;4.584;2023-05-02T04:14:35;12.90;99.90
22974;DHT22;11653;50.848;4.584;2023-05-02T04:17:01;12.80;99.90
22974;DHT22;11653;50.848;4.584;2023-05-02T04:19:27;13.00;99.90
22974;DHT22;11653;50.848;4.584;2023-05-02T04:21:52;13.00;99.90
22974;DHT22;11653;50.848;4.584;2023-05-02T04:24:18;13.10;99.90
22974;DHT22;11653;50.848;4.584;2023-05-02T04:26:44;13.10;99.90
22974;DHT22;11653;50.848;4.584;2023-05-02T04:29:12;12.90;99.90
22974;DHT22;11653;50.848;4.584;2023-05-02T04:31:38;12.90;99.90
22974;DHT22;11653;50.848;4.584;2023-05-02T04:34:04;12.90;99.90
22974;DHT22;11653;50.848;4.584;2023-05-02T04:36:30;12.90;99.90
22974;DHT22;11653;50.848;4.584;2023-05-02T04:38:56;13.10;99.90
22974;DHT22;11653;50.848;4.584;2023-05-02T04:41:22;13.10;99.90
22974;DHT22;11653;50.848;4.584;2023-05-02T04:43:48;13.20;99.90
22974;DHT22;11653;50.848;4.584;2023-05-02T04:46:13;13.00;99.90
22974;DHT22;11653;50.848;4.584;2023-05-02T04:48:39;13.00;99.90
22974;DHT22;11653;50.848;4.584;2023-05-02T04:51:07;13.00;99.90
22974;DHT22;11653;50.848;4.584;2023-05-02T04:53:33;13.00;99.90
22974;DHT22;11653;50.848;4.584;2023-05-02T04:55:59;13.10;99.90
22974;DHT22;11653;50.848;4.584;2023-05-02T04:58:25;13.10;99.90
22974;DHT22;11653;50.848;4.584;2023-05-02T05:00:51;13.10;99.90
22974;DHT22;11653;50.848;4.584;2023-05-02T05:03:16;13.20;99.90
22974;DHT22;11653;50.848;4.584;2023-05-02T05:05:42;13.20;99.90
22974;DHT22;11653;50.848;4.584;2023-05-02T05:08:08;13.20;99.90
22974;DHT22;11653;50.848;4.584;2023-05-02T05:10:33;13.20;99.90
22974;DHT22;11653;50.848;4.584;2023-05-02T05:12:59;13.20;99.90
22974;DHT22;11653;50.848;4.584;2023-05-02T05:15:25;13.20;99.90
22974;DHT22;11653;50.848;4.584;2023-05-02T05:17:51;13.30;99.90
22974;DHT22;11653;50.848;4.584;2023-05-02T05:20:17;13.20;99.90
22974;DHT22;11653;50.848;4.584;2023-05-02T05:22:44;13.30;99.90
22974;DHT22;11653;50.848;4.584;2023-05-02T05:25:10;13.30;99.90
22974;DHT22;11653;50.848;4.584;2023-05-02T05:27:36;13.30;99.90
22974;DHT22;11653;50.848;4.584;2023-05-02T05:30:03;13.30;99.90
22974;DHT22;11653;50.848;4.584;2023-05-02T05:32:29;13.30;99.90
22974;DHT22;11653;50.848;4.584;2023-05-02T05:34:55;13.30;99.90
22974;DHT22;11653;50.848;4.584;2023-05-02T05:37:20;13.30;99.90
22974;DHT22;11653;50.848;4.584;2023-05-02T05:39:47;13.30;99.90
22974;DHT22;11653;50.848;4.584;2023-05-02T05:42:12;13.40;99.90
22974;DHT22;11653;50.848;4.584;2023-05-02T05:44:38;13.50;99.90
22974;DHT22;11653;50.848;4.584;2023-05-02T05:47:04;13.50;99.90
22974;DHT22;11653;50.848;4.584;2023-05-02T05:49:30;13.50;99.90
22974;DHT22;11653;50.848;4.584;2023-05-02T05:51:56;13.50;99.90
22974;DHT22;11653;50.848;4.584;2023-05-02T05:54:21;13.50;99.90
22974;DHT22;11653;50.848;4.584;2023-05-02T05:56:47;13.50;99.90
22974;DHT22;11653;50.848;4.584;2023-05-02T05:59:13;13.40;99.90
22974;DHT22;11653;50.848;4.584;2023-05-02T06:01:39;13.40;99.90
22974;DHT22;11653;50.848;4.584;2023-05-02T06:04:05;13.50;99.90
22974;DHT22;11653;50.848;4.584;2023-05-02T06:06:32;13.30;99.90
22974;DHT22;11653;50.848;4.584;2023-05-02T06:08:57;13.30;99.90
22974;DHT22;11653;50.848;4.584;2023-05-02T06:11:23;13.30;99.90
22974;DHT22;11653;50.848;4.584;2023-05-02T06:13:50;13.30;99.90
22974;DHT22;11653;50.848;4.584;2023-05-02T06:16:16;13.40;99.90
22974;DHT22;11653;50.848;4.584;2023-05-02T06:18:43;13.50;99.90
22974;DHT22;11653;50.848;4.584;2023-05-02T06:21:08;13.50;99.90
22974;DHT22;11653;50.848;4.584;2023-05-02T06:23:34;13.60;99.90
22974;DHT22;11653;50.848;4.584;2023-05-02T06:26:01;13.60;99.90
22974;DHT22;11653;50.848;4.584;2023-05-02T06:28:27;13.60;99.90
22974;DHT22;11653;50.848;4.584;2023-05-02T06:31:04;13.60;99.90
22974;DHT22;11653;50.848;4.584;2023-05-02T06:33:31;13.60;99.90
22974;DHT22;11653;50.848;4.584;2023-05-02T06:35:58;13.50;99.90
22974;DHT22;11653;50.848;4.584;2023-05-02T06:38:24;13.50;99.90
22974;DHT22;11653;50.848;4.584;2023-05-02T06:40:51;13.40;99.90
22974;DHT22;11653;50.848;4.584;2023-05-02T06:43:17;13.50;99.90
22974;DHT22;11653;50.848;4.584;2023-05-02T06:45:43;13.60;99.90
22974;DHT22;11653;50.848;4.584;2023-05-02T06:48:10;13.70;99.90
22974;DHT22;11653;50.848;4.584;2023-05-02T06:50:35;14.00;99.90
22974;DHT22;11653;50.848;4.584;2023-05-02T06:53:02;14.50;99.90
22974;DHT22;11653;50.848;4.584;2023-05-02T06:55:28;15.10;99.90
22974;DHT22;11653;50.848;4.584;2023-05-02T06:57:54;15.90;99.90
22974;DHT22;11653;50.848;4.584;2023-05-02T07:00:20;16.90;99.90
22974;DHT22;11653;50.848;4.584;2023-05-02T07:02:47;17.90;99.90
22974;DHT22;11653;50.848;4.584;2023-05-02T07:05:14;19.10;99.90
22974;DHT22;11653;50.848;4.584;2023-05-02T07:07:43;20.40;99.90
22974;DHT22;11653;50.848;4.584;2023-05-02T07:10:10;21.40;99.60
22974;DHT22;11653;50.848;4.584;2023-05-02T07:12:36;21.30;97.30
22974;DHT22;11653;50.848;4.584;2023-05-02T07:15:05;20.50;97.00
22974;DHT22;11653;50.848;4.584;2023-05-02T07:17:31;20.00;97.70
22974;DHT22;11653;50.848;4.584;2023-05-02T07:19:57;19.40;99.10
22974;DHT22;11653;50.848;4.584;2023-05-02T07:22:22;18.90;99.90
22974;DHT22;11653;50.848;4.584;2023-05-02T07:24:49;18.50;99.90
22974;DHT22;11653;50.848;4.584;2023-05-02T07:27:21;18.10;99.90
22974;DHT22;11653;50.848;4.584;2023-05-02T07:29:46;17.90;99.90
22974;DHT22;11653;50.848;4.584;2023-05-02T07:32:12;18.00;99.90
22974;DHT22;11653;50.848;4.584;2023-05-02T07:34:38;18.20;99.90
22974;DHT22;11653;50.848;4.584;2023-05-02T07:37:03;18.20;99.90
22974;DHT22;11653;50.848;4.584;2023-05-02T07:39:29;18.30;99.90
22974;DHT22;11653;50.848;4.584;2023-05-02T07:41:57;18.50;99.90
22974;DHT22;11653;50.848;4.584;2023-05-02T07:44:22;19.10;99.90
22974;DHT22;11653;50.848;4.584;2023-05-02T07:46:48;19.70;99.90
22974;DHT22;11653;50.848;4.584;2023-05-02T07:49:14;19.80;98.90
22974;DHT22;11653;50.848;4.584;2023-05-02T07:51:40;19.20;99.50
22974;DHT22;11653;50.848;4.584;2023-05-02T07:54:23;18.80;99.90
22974;DHT22;11653;50.848;4.584;2023-05-02T07:56:52;18.90;99.90
22974;DHT22;11653;50.848;4.584;2023-05-02T07:59:18;19.50;99.90
22974;DHT22;11653;50.848;4.584;2023-05-02T08:01:43;20.00;98.20
22974;DHT22;11653;50.848;4.584;2023-05-02T08:04:09;20.60;97.50
22974;DHT22;11653;50.848;4.584;2023-05-02T08:06:36;21.60;95.40
22974;DHT22;11653;50.848;4.584;2023-05-02T08:09:01;22.30;93.00
22974;DHT22;11653;50.848;4.584;2023-05-02T08:11:27;22.70;92.00
22974;DHT22;11653;50.848;4.584;2023-05-02T08:13:53;22.40;91.20
22974;DHT22;11653;50.848;4.584;2023-05-02T08:16:19;22.50;91.40
22974;DHT22;11653;50.848;4.584;2023-05-02T08:18:45;23.10;90.40
22974;DHT22;11653;50.848;4.584;2023-05-02T08:21:11;23.80;87.90
22974;DHT22;11653;50.848;4.584;2023-05-02T08:23:39;24.80;84.70
22974;DHT22;11653;50.848;4.584;2023-05-02T08:26:05;26.20;81.10
22974;DHT22;11653;50.848;4.584;2023-05-02T08:28:31;27.00;77.70
22974;DHT22;11653;50.848;4.584;2023-05-02T08:30:56;26.70;76.00
22974;DHT22;11653;50.848;4.584;2023-05-02T08:33:22;26.00;74.20
22974;DHT22;11653;50.848;4.584;2023-05-02T08:35:48;25.20;76.30
22974;DHT22;11653;50.848;4.584;2023-05-02T08:38:13;24.40;77.30
22974;DHT22;11653;50.848;4.584;2023-05-02T08:40:39;23.50;79.00
22974;DHT22;11653;50.848;4.584;2023-05-02T08:43:05;22.60;81.50
22974;DHT22;11653;50.848;4.584;2023-05-02T08:45:38;22.20;84.40
22974;DHT22;11653;50.848;4.584;2023-05-02T08:48:09;22.60;84.90
22974;DHT22;11653;50.848;4.584;2023-05-02T08:50:37;23.00;82.00
22974;DHT22;11653;50.848;4.584;2023-05-02T08:53:04;22.80;83.20
22974;DHT22;11653;50.848;4.584;2023-05-02T08:55:32;22.60;83.60
22974;DHT22;11653;50.848;4.584;2023-05-02T08:57:58;22.30;83.70
22974;DHT22;11653;50.848;4.584;2023-05-02T09:00:25;22.20;85.00
22974;DHT22;11653;50.848;4.584;2023-05-02T09:03:09;22.30;83.20
22974;DHT22;11653;50.848;4.584;2023-05-02T09:05:40;23.10;83.80
22974;DHT22;11653;50.848;4.584;2023-05-02T09:08:06;24.00;79.00
22974;DHT22;11653;50.848;4.584;2023-05-02T09:10:34;24.30;77.20
22974;DHT22;11653;50.848;4.584;2023-05-02T09:13:29;24.10;78.40
22974;DHT22;11653;50.848;4.584;2023-05-02T09:16:06;23.20;79.90
22974;DHT22;11653;50.848;4.584;2023-05-02T09:18:39;22.60;80.30
22974;DHT22;11653;50.848;4.584;2023-05-02T09:21:08;21.90;81.10
22974;DHT22;11653;50.848;4.584;2023-05-02T09:23:45;21.60;83.30
22974;DHT22;11653;50.848;4.584;2023-05-02T09:26:16;21.30;84.60
22974;DHT22;11653;50.848;4.584;2023-05-02T09:28:47;21.20;85.00
22974;DHT22;11653;50.848;4.584;2023-05-02T09:31:18;21.40;85.80
22974;DHT22;11653;50.848;4.584;2023-05-02T09:33:44;22.40;84.20
22974;DHT22;11653;50.848;4.584;2023-05-02T09:36:12;23.40;78.50
22974;DHT22;11653;50.848;4.584;2023-05-02T09:38:40;23.70;76.80
22974;DHT22;11653;50.848;4.584;2023-05-02T09:41:06;23.90;76.10
22974;DHT22;11653;50.848;4.584;2023-05-02T09:43:33;23.90;75.10
22974;DHT22;11653;50.848;4.584;2023-05-02T09:46:07;24.10;72.60
22974;DHT22;11653;50.848;4.584;2023-05-02T09:48:54;24.90;71.40
22974;DHT22;11653;50.848;4.584;2023-05-02T09:51:21;25.90;69.00
22974;DHT22;11653;50.848;4.584;2023-05-02T09:53:47;27.10;64.70
22974;DHT22;11653;50.848;4.584;2023-05-02T09:56:13;27.60;62.50
22974;DHT22;11653;50.848;4.584;2023-05-02T09:58:40;28.50;59.90
22974;DHT22;11653;50.848;4.584;2023-05-02T10:01:05;29.20;58.00
22974;DHT22;11653;50.848;4.584;2023-05-02T10:03:36;30.00;57.70
22974;DHT22;11653;50.848;4.584;2023-05-02T10:06:02;30.90;56.00
22974;DHT22;11653;50.848;4.584;2023-05-02T10:08:28;30.60;53.90
22974;DHT22;11653;50.848;4.584;2023-05-02T10:10:56;29.80;53.40
22974;DHT22;11653;50.848;4.584;2023-05-02T10:13:25;28.20;55.50
22974;DHT22;11653;50.848;4.584;2023-05-02T10:16:01;27.10;57.90
22974;DHT22;11653;50.848;4.584;2023-05-02T10:20:59;27.60;57.10
22974;DHT22;11653;50.848;4.584;2023-05-02T10:23:28;28.20;56.50
22974;DHT22;11653;50.848;4.584;2023-05-02T10:25:56;28.40;54.70
22974;DHT22;11653;50.848;4.584;2023-05-02T10:28:22;29.00;53.80
22974;DHT22;11653;50.848;4.584;2023-05-02T10:30:49;29.20;54.20
22974;DHT22;11653;50.848;4.584;2023-05-02T10:33:16;29.50;52.70
22974;DHT22;11653;50.848;4.584;2023-05-02T10:35:44;29.90;51.10
22974;DHT22;11653;50.848;4.584;2023-05-02T10:38:15;30.10;52.80
22974;DHT22;11653;50.848;4.584;2023-05-02T10:40:57;29.90;50.30
22974;DHT22;11653;50.848;4.584;2023-05-02T10:43:25;28.60;52.80
22974;DHT22;11653;50.848;4.584;2023-05-02T10:45:52;28.30;52.80
22974;DHT22;11653;50.848;4.584;2023-05-02T10:48:25;28.10;52.90
22974;DHT22;11653;50.848;4.584;2023-05-02T10:50:59;28.20;53.10
22974;DHT22;11653;50.848;4.584;2023-05-02T10:53:35;27.70;53.00
22974;DHT22;11653;50.848;4.584;2023-05-02T10:56:21;26.90;54.40
22974;DHT22;11653;50.848;4.584;2023-05-02T10:58:51;25.10;56.40
22974;DHT22;11653;50.848;4.584;2023-05-02T11:04:06;23.70;62.00
22974;DHT22;11653;50.848;4.584;2023-05-02T11:11:52;25.70;59.20
22974;DHT22;11653;50.848;4.584;2023-05-02T11:19:26;25.50;57.30
22974;DHT22;11653;50.848;4.584;2023-05-02T11:21:52;24.60;58.70
22974;DHT22;11653;50.848;4.584;2023-05-02T11:24:42;24.40;57.80
22974;DHT22;11653;50.848;4.584;2023-05-02T11:29:57;25.40;58.80
22974;DHT22;11653;50.848;4.584;2023-05-02T11:32:24;26.30;57.50
22974;DHT22;11653;50.848;4.584;2023-05-02T11:34:52;26.80;55.40
22974;DHT22;11653;50.848;4.584;2023-05-02T11:37:19;26.80;54.90
22974;DHT22;11653;50.848;4.584;2023-05-02T11:39:46;26.30;55.10
22974;DHT22;11653;50.848;4.584;2023-05-02T11:42:28;25.90;56.80
22974;DHT22;11653;50.848;4.584;2023-05-02T11:44:58;25.10;56.70
22974;DHT22;11653;50.848;4.584;2023-05-02T11:47:25;24.50;58.80
22974;DHT22;11653;50.848;4.584;2023-05-02T11:49:55;24.00;59.60
22974;DHT22;11653;50.848;4.584;2023-05-02T11:52:22;23.60;60.30
22974;DHT22;11653;50.848;4.584;2023-05-02T11:54:49;22.60;61.90
22974;DHT22;11653;50.848;4.584;2023-05-02T11:57:18;22.00;64.50
22974;DHT22;11653;50.848;4.584;2023-05-02T11:59:55;21.90;66.30
22974;DHT22;11653;50.848;4.584;2023-05-02T12:02:44;22.50;66.20
22974;DHT22;11653;50.848;4.584;2023-05-02T12:05:12;23.70;63.00
22974;DHT22;11653;50.848;4.584;2023-05-02T12:07:46;23.90;62.50
22974;DHT22;11653;50.848;4.584;2023-05-02T12:10:14;24.10;63.30
22974;DHT22;11653;50.848;4.584;2023-05-02T12:12:41;24.20;61.80
22974;DHT22;11653;50.848;4.584;2023-05-02T12:15:09;24.20;60.40
22974;DHT22;11653;50.848;4.584;2023-05-02T12:17:40;23.60;61.30
22974;DHT22;11653;50.848;4.584;2023-05-02T12:20:08;23.70;62.40
22974;DHT22;11653;50.848;4.584;2023-05-02T12:22:34;23.80;61.10
22974;DHT22;11653;50.848;4.584;2023-05-02T12:25:00;23.60;59.70
22974;DHT22;11653;50.848;4.584;2023-05-02T12:27:28;23.60;63.30
22974;DHT22;11653;50.848;4.584;2023-05-02T12:29:54;23.50;62.90
22974;DHT22;11653;50.848;4.584;2023-05-02T12:32:30;23.20;61.60
22974;DHT22;11653;50.848;4.584;2023-05-02T12:34:57;23.00;62.10
22974;DHT22;11653;50.848;4.584;2023-05-02T12:37:24;22.80;63.40
22974;DHT22;11653;50.848;4.584;2023-05-02T12:39:50;22.50;63.60
22974;DHT22;11653;50.848;4.584;2023-05-02T12:42:19;22.20;64.50
22974;DHT22;11653;50.848;4.584;2023-05-02T12:44:47;22.10;64.70
22974;DHT22;11653;50.848;4.584;2023-05-02T12:47:14;21.80;64.20
22974;DHT22;11653;50.848;4.584;2023-05-02T12:52:20;21.80;66.40
22974;DHT22;11653;50.848;4.584;2023-05-02T12:54:46;21.70;64.30
22974;DHT22;11653;50.848;4.584;2023-05-02T12:57:25;21.20;66.60
22974;DHT22;11653;50.848;4.584;2023-05-02T12:59:53;20.70;68.40
22974;DHT22;11653;50.848;4.584;2023-05-02T13:02:20;20.60;68.30
22974;DHT22;11653;50.848;4.584;2023-05-02T13:04:46;20.50;66.30
22974;DHT22;11653;50.848;4.584;2023-05-02T13:07:11;20.40;66.60
22974;DHT22;11653;50.848;4.584;2023-05-02T13:09:37;20.00;68.20
22974;DHT22;11653;50.848;4.584;2023-05-02T13:12:03;19.70;69.40
22974;DHT22;11653;50.848;4.584;2023-05-02T13:14:29;19.50;70.20
22974;DHT22;11653;50.848;4.584;2023-05-02T13:16:54;19.50;71.00
22974;DHT22;11653;50.848;4.584;2023-05-02T13:19:21;19.60;73.10
22974;DHT22;11653;50.848;4.584;2023-05-02T13:21:47;19.90;72.70
22974;DHT22;11653;50.848;4.584;2023-05-02T13:24:12;20.20;72.50
22974;DHT22;11653;50.848;4.584;2023-05-02T13:26:39;20.40;71.60
22974;DHT22;11653;50.848;4.584;2023-05-02T13:29:05;20.50;72.10
22974;DHT22;11653;50.848;4.584;2023-05-02T13:31:31;20.50;69.20
22974;DHT22;11653;50.848;4.584;2023-05-02T13:33:57;20.50;70.80
22974;DHT22;11653;50.848;4.584;2023-05-02T13:36:22;20.50;70.20
22974;DHT22;11653;50.848;4.584;2023-05-02T13:38:49;20.60;69.40
22974;DHT22;11653;50.848;4.584;2023-05-02T13:41:14;20.70;73.00
22974;DHT22;11653;50.848;4.584;2023-05-02T13:43:40;20.80;69.80
22974;DHT22;11653;50.848;4.584;2023-05-02T13:46:06;21.00;69.50
22974;DHT22;11653;50.848;4.584;2023-05-02T13:48:32;21.00;68.40
22974;DHT22;11653;50.848;4.584;2023-05-02T13:50:57;21.10;70.00
22974;DHT22;11653;50.848;4.584;2023-05-02T13:53:23;21.20;69.00
22974;DHT22;11653;50.848;4.584;2023-05-02T13:55:49;21.20;65.80
22974;DHT22;11653;50.848;4.584;2023-05-02T13:58:14;20.90;66.40
22974;DHT22;11653;50.848;4.584;2023-05-02T14:00:40;20.80;66.80
22974;DHT22;11653;50.848;4.584;2023-05-02T14:03:06;20.80;66.70
22974;DHT22;11653;50.848;4.584;2023-05-02T14:05:31;20.50;68.80
22974;DHT22;11653;50.848;4.584;2023-05-02T14:07:57;20.50;69.60
22974;DHT22;11653;50.848;4.584;2023-05-02T14:10:23;20.40;72.50
22974;DHT22;11653;50.848;4.584;2023-05-02T14:12:48;20.30;72.70
22974;DHT22;11653;50.848;4.584;2023-05-02T14:15:14;20.20;70.60
22974;DHT22;11653;50.848;4.584;2023-05-02T14:17:40;20.30;71.10
22974;DHT22;11653;50.848;4.584;2023-05-02T14:20:06;20.20;70.10
22974;DHT22;11653;50.848;4.584;2023-05-02T14:22:34;20.20;70.20
22974;DHT22;11653;50.848;4.584;2023-05-02T14:25:00;20.10;72.30
22974;DHT22;11653;50.848;4.584;2023-05-02T14:27:26;19.90;70.10
22974;DHT22;11653;50.848;4.584;2023-05-02T14:29:52;19.80;70.60
22974;DHT22;11653;50.848;4.584;2023-05-02T14:32:17;19.90;68.90
22974;DHT22;11653;50.848;4.584;2023-05-02T14:34:43;19.80;68.30
22974;DHT22;11653;50.848;4.584;2023-05-02T14:37:08;20.10;69.10
22974;DHT22;11653;50.848;4.584;2023-05-02T14:39:35;20.20;70.30
22974;DHT22;11653;50.848;4.584;2023-05-02T14:42:01;20.20;69.70
22974;DHT22;11653;50.848;4.584;2023-05-02T14:44:29;20.20;66.50
22974;DHT22;11653;50.848;4.584;2023-05-02T14:46:54;20.10;66.70
22974;DHT22;11653;50.848;4.584;2023-05-02T14:49:23;20.00;68.40
22974;DHT22;11653;50.848;4.584;2023-05-02T14:51:50;20.00;69.00
22974;DHT22;11653;50.848;4.584;2023-05-02T14:54:16;19.80;70.80
22974;DHT22;11653;50.848;4.584;2023-05-02T14:56:42;19.80;70.30
22974;DHT22;11653;50.848;4.584;2023-05-02T14:59:08;19.90;70.80
22974;DHT22;11653;50.848;4.584;2023-05-02T15:01:33;19.70;68.60
22974;DHT22;11653;50.848;4.584;2023-05-02T15:03:59;19.70;69.90
22974;DHT22;11653;50.848;4.584;2023-05-02T15:06:28;19.80;70.40
22974;DHT22;11653;50.848;4.584;2023-05-02T15:08:55;19.80;67.90
22974;DHT22;11653;50.848;4.584;2023-05-02T15:11:21;19.80;67.60
22974;DHT22;11653;50.848;4.584;2023-05-02T15:13:47;19.70;68.30
22974;DHT22;11653;50.848;4.584;2023-05-02T15:16:12;19.60;69.30
22974;DHT22;11653;50.848;4.584;2023-05-02T15:18:38;19.60;67.90
22974;DHT22;11653;50.848;4.584;2023-05-02T15:21:04;19.70;68.40
22974;DHT22;11653;50.848;4.584;2023-05-02T15:23:30;19.60;67.90
22974;DHT22;11653;50.848;4.584;2023-05-02T15:25:55;19.60;68.80
22974;DHT22;11653;50.848;4.584;2023-05-02T15:28:21;19.60;68.10
22974;DHT22;11653;50.848;4.584;2023-05-02T15:30:47;19.20;69.80
22974;DHT22;11653;50.848;4.584;2023-05-02T15:33:13;19.30;70.10
22974;DHT22;11653;50.848;4.584;2023-05-02T15:35:51;19.30;68.30
22974;DHT22;11653;50.848;4.584;2023-05-02T15:38:18;19.30;70.20
22974;DHT22;11653;50.848;4.584;2023-05-02T15:40:44;19.30;66.70
22974;DHT22;11653;50.848;4.584;2023-05-02T15:43:17;19.30;68.10
22974;DHT22;11653;50.848;4.584;2023-05-02T15:45:43;19.10;67.80
22974;DHT22;11653;50.848;4.584;2023-05-02T15:48:09;19.10;67.50
22974;DHT22;11653;50.848;4.584;2023-05-02T15:50:34;19.00;68.90
22974;DHT22;11653;50.848;4.584;2023-05-02T15:53:00;19.00;68.50
22974;DHT22;11653;50.848;4.584;2023-05-02T15:55:25;19.00;66.60
22974;DHT22;11653;50.848;4.584;2023-05-02T15:57:51;18.60;68.50
22974;DHT22;11653;50.848;4.584;2023-05-02T16:00:18;18.80;67.80
22974;DHT22;11653;50.848;4.584;2023-05-02T16:02:44;18.90;67.70
22974;DHT22;11653;50.848;4.584;2023-05-02T16:05:10;18.90;67.10
22974;DHT22;11653;50.848;4.584;2023-05-02T16:07:36;19.00;66.70
22974;DHT22;11653;50.848;4.584;2023-05-02T16:10:04;19.10;67.70
22974;DHT22;11653;50.848;4.584;2023-05-02T16:12:30;19.10;66.70
22974;DHT22;11653;50.848;4.584;2023-05-02T16:14:56;18.80;65.00
22974;DHT22;11653;50.848;4.584;2023-05-02T16:17:21;18.70;64.50
22974;DHT22;11653;50.848;4.584;2023-05-02T16:19:47;18.60;65.20
22974;DHT22;11653;50.848;4.584;2023-05-02T16:22:12;18.60;66.00